Time;durP1;ratioP1;P1;durP2;ratioP2;P2;SDS_P1;SDS_P2;PMS_P1;PMS_P2;Temp;Humidity;BMP_temperature;BMP_pressure;BME280_temperature;BME280_humidity;BME280_pressure;Samples;Min_cycle;Max_cycle;Signal;HPM_P1;HPM_P2
2023/09/24 00:01:36;;;;;;;3.03;2.20;;;12.30;99.90;11.70;100612;;;;572647;246;24100;-77
2023/09/24 00:04:04;;;;;;;2.23;2.13;;;12.40;99.90;11.70;100614;;;;572548;246;24171;-77
2023/09/24 00:06:32;;;;;;;2.90;2.70;;;12.40;99.90;11.70;100624;;;;572170;246;24076;-77
2023/09/24 00:09:00;;;;;;;2.33;2.23;;;12.40;99.90;11.70;100636;;;;572019;246;24171;-76
2023/09/24 00:11:28;;;;;;;3.10;2.50;;;12.40;99.90;11.70;100643;;;;572101;246;24115;-76
2023/09/24 00:13:57;;;;;;;2.73;2.13;;;12.40;99.90;11.70;100635;;;;572011;246;24114;-77
2023/09/24 00:16:25;;;;;;;2.70;2.50;;;12.40;99.90;11.70;100641;;;;572135;246;24083;-76
2023/09/24 00:18:54;;;;;;;2.23;2.13;;;12.40;99.90;11.70;100640;;;;572073;246;24090;-76
2023/09/24 00:21:22;;;;;;;2.70;2.50;;;12.40;99.90;11.70;100645;;;;571901;246;24151;-77
2023/09/24 00:23:50;;;;;;;2.20;2.10;;;12.40;99.90;11.70;100642;;;;572032;246;24064;-76
2023/09/24 00:26:18;;;;;;;3.93;2.70;;;12.40;99.90;11.70;100647;;;;571959;246;24094;-76
2023/09/24 00:28:46;;;;;;;2.77;2.57;;;12.40;99.90;11.70;100655;;;;572135;246;24158;-76
2023/09/24 00:31:13;;;;;;;2.13;1.93;;;12.30;99.90;11.70;100649;;;;572008;246;24067;-77
2023/09/24 00:33:41;;;;;;;2.70;2.50;;;12.30;99.90;11.70;100663;;;;572391;246;24120;-77
2023/09/24 00:36:09;;;;;;;2.50;2.30;;;12.30;99.90;11.60;100655;;;;572349;246;24110;-76
2023/09/24 00:38:38;;;;;;;2.63;2.47;;;12.30;99.90;11.60;100656;;;;572295;246;25129;-74
2023/09/24 00:41:05;;;;;;;2.47;2.30;;;12.30;99.90;11.60;100652;;;;572239;246;24069;-75
2023/09/24 00:43:33;;;;;;;2.33;2.07;;;12.30;99.90;11.60;100654;;;;572783;246;24171;-76
2023/09/24 00:46:01;;;;;;;2.33;2.23;;;12.30;99.90;11.60;100655;;;;573445;246;24079;-76
2023/09/24 00:48:32;;;;;;;3.20;2.90;;;12.30;99.90;11.60;100656;;;;573174;246;24147;-76
2023/09/24 00:51:03;;;;;;;2.80;2.47;;;12.30;99.90;11.60;100657;;;;572422;246;24176;-76
2023/09/24 00:53:31;;;;;;;3.00;2.80;;;12.20;99.90;11.60;100668;;;;572222;246;24189;-75
2023/09/24 00:56:01;;;;;;;2.57;2.37;;;12.30;99.90;11.60;100660;;;;572434;246;24165;-76
2023/09/24 00:58:27;;;;;;;2.50;2.40;;;12.30;99.90;11.60;100666;;;;572320;246;24116;-77
2023/09/24 01:00:55;;;;;;;4.50;2.87;;;12.20;99.90;11.50;100668;;;;572243;246;24107;-75
2023/09/24 01:03:23;;;;;;;2.60;2.40;;;12.20;99.90;11.50;100682;;;;572478;246;24138;-76
2023/09/24 01:05:54;;;;;;;3.03;2.60;;;12.20;99.90;11.50;100679;;;;572155;246;24072;-76
2023/09/24 01:08:23;;;;;;;3.10;2.83;;;12.10;99.90;11.40;100682;;;;572067;246;24091;-77
2023/09/24 01:10:50;;;;;;;2.60;2.40;;;12.10;99.90;11.40;100675;;;;572277;246;24084;-77
2023/09/24 01:13:23;;;;;;;4.43;2.33;;;12.10;99.90;11.40;100687;;;;572155;246;24074;-76
2023/09/24 01:15:50;;;;;;;2.53;2.33;;;12.10;99.90;11.40;100685;;;;572372;246;25132;-76
2023/09/24 01:18:18;;;;;;;3.40;2.23;;;12.00;99.90;11.40;100693;;;;572193;246;24187;-77
2023/09/24 01:20:46;;;;;;;3.93;2.83;;;12.00;99.90;11.30;100696;;;;572034;246;24090;-77
2023/09/24 01:23:14;;;;;;;2.90;2.70;;;12.00;99.90;11.30;100701;;;;571943;246;24101;-76
2023/09/24 01:25:44;;;;;;;4.37;2.80;;;12.00;99.90;11.30;100702;;;;571926;246;24077;-76
2023/09/24 01:28:14;;;;;;;2.70;2.47;;;12.00;99.90;11.30;100698;;;;572251;246;24069;-76
2023/09/24 01:30:44;;;;;;;3.50;2.83;;;12.00;99.90;11.30;100701;;;;572368;246;24080;-77
2023/09/24 01:33:10;;;;;;;2.60;2.40;;;11.90;99.90;11.30;100699;;;;572242;246;24146;-77
2023/09/24 01:35:38;;;;;;;3.03;2.77;;;11.90;99.90;11.20;100699;;;;571990;246;24094;-77
2023/09/24 01:38:06;;;;;;;2.13;1.93;;;11.90;99.90;11.20;100708;;;;572015;246;24106;-75
2023/09/24 01:40:35;;;;;;;2.80;2.60;;;11.90;99.90;11.20;100702;;;;572054;246;24147;-76
2023/09/24 01:43:05;;;;;;;3.93;2.93;;;11.90;99.90;11.20;100718;;;;580463;246;24087;-75
2023/09/24 01:45:29;;;;;;;3.03;2.80;;;11.90;99.90;11.20;100704;;;;571889;246;24102;-76
2023/09/24 01:47:57;;;;;;;2.87;2.63;;;11.90;99.90;11.20;100711;;;;571941;246;24089;-76
2023/09/24 01:50:28;;;;;;;2.87;2.67;;;11.90;99.90;11.20;100712;;;;572144;246;24083;-76
2023/09/24 01:52:59;;;;;;;5.33;2.40;;;11.90;99.90;11.20;100714;;;;571919;246;24170;-76
2023/09/24 01:55:27;;;;;;;3.40;2.87;;;11.80;99.90;11.20;100713;;;;573110;246;24167;-76
2023/09/24 01:58:02;;;;;;;5.90;2.73;;;11.80;99.90;11.10;100710;;;;573097;246;24085;-76
2023/09/24 02:00:26;;;;;;;2.90;2.70;;;11.80;99.90;11.20;100715;;;;572338;246;24149;-78
2023/09/24 02:02:57;;;;;;;3.00;2.80;;;11.80;99.90;11.10;100718;;;;572825;246;24148;-76
2023/09/24 02:05:26;;;;;;;2.50;2.30;;;11.80;99.90;11.20;100719;;;;571948;246;24084;-75
2023/09/24 02:07:50;;;;;;;2.80;2.47;;;11.80;99.90;11.10;100723;;;;572409;246;24091;-74
2023/09/24 02:10:18;;;;;;;5.93;2.60;;;11.80;99.90;11.10;100724;;;;572804;246;24184;-75
2023/09/24 02:12:46;;;;;;;3.53;3.33;;;11.80;99.90;11.10;100724;;;;567859;246;35328;-76
2023/09/24 02:15:25;;;;;;;3.13;2.93;;;11.80;99.90;11.10;100729;;;;572499;246;24083;-75
2023/09/24 02:17:42;;;;;;;2.73;2.53;;;11.80;99.90;11.10;100726;;;;570995;246;24091;-76
2023/09/24 02:20:22;;;;;;;3.03;2.83;;;11.80;99.90;11.10;100728;;;;572429;246;24071;-77
2023/09/24 02:22:38;;;;;;;4.97;2.80;;;11.80;99.90;11.10;100732;;;;571600;246;24142;-77
2023/09/24 02:25:06;;;;;;;2.97;2.73;;;11.80;99.90;11.00;100729;;;;572189;246;24150;-77
2023/09/24 02:27:38;;;;;;;4.20;2.13;;;11.70;99.90;11.00;100727;;;;572217;246;24079;-77
2023/09/24 02:30:01;;;;;;;3.63;3.30;;;11.70;99.90;11.00;100726;;;;571711;246;24114;-77
2023/09/24 02:32:30;;;;;;;3.30;2.77;;;11.70;99.90;11.00;100730;;;;572056;246;24086;-77
2023/09/24 02:34:57;;;;;;;2.80;2.60;;;11.60;99.90;11.00;100735;;;;571979;246;24067;-76
2023/09/24 02:37:28;;;;;;;2.60;2.40;;;11.60;99.90;10.90;100737;;;;572400;246;24108;-76
2023/09/24 02:39:54;;;;;;;6.57;3.20;;;11.60;99.90;10.90;100733;;;;572269;246;24073;-76
2023/09/24 02:42:25;;;;;;;6.15;3.95;;;11.60;99.90;11.00;100738;;;;567296;246;35253;-76
2023/09/24 02:44:50;;;;;;;4.80;4.28;;;11.60;99.90;11.00;100730;;;;567143;246;35257;-76
2023/09/24 02:47:17;;;;;;;3.83;3.50;;;11.60;99.90;11.00;100741;;;;572304;246;24087;-76
2023/09/24 02:49:45;;;;;;;3.47;2.90;;;11.70;99.90;11.00;100746;;;;572417;246;24142;-76
2023/09/24 02:52:13;;;;;;;3.77;2.93;;;11.70;99.90;11.00;100751;;;;572361;246;24116;-75
2023/09/24 02:54:41;;;;;;;2.83;2.33;;;11.60;99.90;11.00;100753;;;;572107;246;24090;-76
2023/09/24 02:57:09;;;;;;;3.10;2.90;;;11.70;99.90;11.00;100754;;;;572020;246;24120;-76
2023/09/24 02:59:37;;;;;;;5.30;3.47;;;11.70;99.90;11.00;100762;;;;571898;246;24113;-76
2023/09/24 03:02:05;;;;;;;3.20;3.00;;;11.70;99.90;11.00;100757;;;;572014;246;24080;-75
2023/09/24 03:04:34;;;;;;;3.20;2.90;;;11.70;99.90;11.00;100763;;;;571987;246;24095;-76
2023/09/24 03:07:02;;;;;;;4.37;3.97;;;11.60;99.90;11.00;100763;;;;567847;246;35248;-75
2023/09/24 03:09:30;;;;;;;3.67;2.70;;;11.60;99.90;11.00;100772;;;;573125;246;24089;-76
2023/09/24 03:11:59;;;;;;;3.13;2.83;;;11.60;99.90;10.90;100774;;;;572950;246;24120;-75
2023/09/24 03:14:27;;;;;;;2.80;2.53;;;11.60;99.90;11.00;100778;;;;572838;246;24092;-75
2023/09/24 03:16:55;;;;;;;3.37;3.03;;;11.60;99.90;10.90;100786;;;;572616;246;24083;-75
2023/09/24 03:19:23;;;;;;;3.17;2.87;;;11.60;99.90;10.90;100786;;;;572681;246;24138;-75
2023/09/24 03:21:50;;;;;;;3.07;2.73;;;11.60;99.90;10.90;100798;;;;572571;246;24082;-76
2023/09/24 03:24:19;;;;;;;3.00;2.80;;;11.60;99.90;10.80;100792;;;;572586;246;24084;-75
2023/09/24 03:26:47;;;;;;;3.00;2.80;;;11.50;99.90;10.80;100802;;;;572066;246;24092;-76
2023/09/24 03:29:15;;;;;;;3.90;3.57;;;11.40;99.90;10.70;100797;;;;572026;246;24166;-76
2023/09/24 03:31:43;;;;;;;4.25;3.92;;;11.40;99.90;10.70;100797;;;;567260;246;35282;-76
2023/09/24 03:34:11;;;;;;;3.67;3.37;;;11.40;99.90;10.70;100799;;;;572301;246;24083;-75
2023/09/24 03:36:39;;;;;;;4.70;3.77;;;11.40;99.90;10.70;100804;;;;572339;246;24087;-75
2023/09/24 03:39:08;;;;;;;4.10;3.70;;;11.40;99.90;10.70;100810;;;;572593;246;24094;-76
2023/09/24 03:41:35;;;;;;;3.70;3.23;;;11.40;99.90;10.60;100817;;;;572578;246;24064;-75
2023/09/24 03:44:03;;;;;;;3.57;3.27;;;11.40;99.90;10.70;100831;;;;572442;246;24202;-75
2023/09/24 03:46:30;;;;;;;5.97;2.93;;;11.30;99.90;10.70;100832;;;;572361;246;24118;-76
2023/09/24 03:48:59;;;;;;;3.13;2.83;;;11.40;99.90;10.80;100831;;;;572394;246;24092;-76
2023/09/24 03:51:28;;;;;;;3.70;3.40;;;11.50;99.90;10.80;100835;;;;572333;246;24090;-76
2023/09/24 03:53:56;;;;;;;3.97;3.63;;;11.50;99.90;10.90;100844;;;;572353;246;24089;-76
2023/09/24 03:56:24;;;;;;;3.53;3.23;;;11.50;99.90;10.90;100854;;;;572085;246;24076;-78
2023/09/24 03:58:51;;;;;;;3.63;3.33;;;11.60;99.90;11.00;100859;;;;571891;246;24093;-77
2023/09/24 04:01:19;;;;;;;3.50;3.20;;;11.60;99.90;11.00;100856;;;;572057;246;24079;-77
2023/09/24 04:03:48;;;;;;;3.67;3.23;;;11.70;99.90;11.00;100863;;;;571936;246;24200;-77
2023/09/24 04:06:16;;;;;;;4.07;3.40;;;11.70;99.90;11.00;100866;;;;572338;246;24098;-76
2023/09/24 04:08:43;;;;;;;4.10;3.77;;;11.70;99.90;11.00;100877;;;;571977;246;24231;-76
2023/09/24 04:11:15;;;;;;;3.67;3.40;;;11.70;99.90;11.00;100878;;;;572175;246;24104;-77
2023/09/24 04:13:45;;;;;;;4.13;3.10;;;11.60;99.90;10.90;100886;;;;571990;246;24086;-77
2023/09/24 04:16:10;;;;;;;3.23;3.03;;;11.60;99.90;10.90;100886;;;;571561;246;24179;-77
2023/09/24 04:18:39;;;;;;;5.43;4.57;;;11.60;99.90;10.90;100884;;;;567728;246;35343;-78
2023/09/24 04:21:07;;;;;;;6.57;3.10;;;11.60;99.90;10.80;100891;;;;573005;246;24079;-76
2023/09/24 04:23:34;;;;;;;3.50;3.20;;;11.50;99.90;10.80;100895;;;;571736;246;24085;-77
2023/09/24 04:26:02;;;;;;;3.70;3.37;;;11.50;99.90;10.80;100893;;;;572759;246;24122;-76
2023/09/24 04:28:30;;;;;;;3.93;3.53;;;11.50;99.90;10.70;100901;;;;572718;246;24189;-77
2023/09/24 04:30:58;;;;;;;5.70;3.20;;;11.40;99.90;10.70;100900;;;;572516;246;24104;-77
2023/09/24 04:33:26;;;;;;;5.03;3.80;;;11.40;99.90;10.70;100911;;;;568236;246;24088;-76
2023/09/24 04:35:55;;;;;;;4.13;3.73;;;11.40;99.90;10.70;100916;;;;572378;246;24139;-77
2023/09/24 04:38:24;;;;;;;4.90;4.13;;;11.40;99.90;10.80;100918;;;;572471;246;24116;-78
2023/09/24 04:40:52;;;;;;;4.07;3.70;;;11.40;99.90;10.80;100918;;;;572406;246;24097;-76
2023/09/24 04:43:20;;;;;;;4.97;3.57;;;11.40;99.90;10.80;100927;;;;572449;246;24086;-77
2023/09/24 04:45:47;;;;;;;4.17;3.87;;;11.40;99.90;10.80;100931;;;;572463;246;24155;-77
2023/09/24 04:48:15;;;;;;;5.43;3.43;;;11.50;99.90;10.80;100936;;;;572500;246;24125;-77
2023/09/24 04:50:43;;;;;;;6.03;4.63;;;11.50;99.90;10.90;100932;;;;572490;246;24117;-77
2023/09/24 04:53:11;;;;;;;7.13;3.90;;;11.50;99.90;10.90;100933;;;;572481;246;24095;-77
2023/09/24 04:55:39;;;;;;;5.77;4.00;;;11.60;99.90;10.90;100938;;;;572343;246;24075;-76
2023/09/24 04:58:08;;;;;;;15.63;3.30;;;11.70;99.90;11.00;100942;;;;571749;246;24154;-77
2023/09/24 05:00:37;;;;;;;5.90;3.77;;;11.70;99.90;11.10;100942;;;;571869;246;24104;-76
2023/09/24 05:03:05;;;;;;;8.03;3.70;;;11.80;99.90;11.10;100954;;;;571628;246;24144;-77
2023/09/24 05:05:33;;;;;;;4.03;3.33;;;11.80;99.90;11.20;100953;;;;571744;246;24114;-76
2023/09/24 05:08:01;;;;;;;4.77;3.63;;;11.80;99.90;11.20;100953;;;;572275;246;24100;-76
2023/09/24 05:10:29;;;;;;;3.53;3.00;;;11.90;99.90;11.30;100961;;;;580529;246;24084;-77
2023/09/24 05:12:57;;;;;;;4.67;3.73;;;11.90;99.90;11.30;100977;;;;572242;246;24084;-76
2023/09/24 05:15:25;;;;;;;3.90;3.47;;;12.00;99.90;11.40;100975;;;;572233;246;24068;-76
2023/09/24 05:17:53;;;;;;;5.93;3.67;;;12.00;99.90;11.40;100969;;;;572183;246;24111;-76
2023/09/24 05:20:20;;;;;;;4.23;3.37;;;12.10;99.90;11.40;100972;;;;572208;246;24074;-76
2023/09/24 05:22:49;;;;;;;3.87;3.57;;;12.20;99.90;11.50;100980;;;;572240;246;24086;-77
2023/09/24 05:25:19;;;;;;;4.07;3.13;;;12.20;99.90;11.60;100984;;;;572207;246;24089;-76
2023/09/24 05:27:46;;;;;;;3.63;3.27;;;12.20;99.90;11.70;100995;;;;576334;246;24174;-77
2023/09/24 05:30:14;;;;;;;5.63;3.80;;;12.30;99.90;11.80;100991;;;;572585;246;24214;-76
2023/09/24 05:32:42;;;;;;;4.17;3.77;;;12.50;99.90;12.00;100996;;;;572939;246;24060;-77
2023/09/24 05:35:09;;;;;;;3.13;2.83;;;12.60;99.90;12.20;101004;;;;572877;246;24080;-77
2023/09/24 05:37:39;;;;;;;4.63;3.60;;;12.80;99.90;12.40;101003;;;;572619;246;24088;-77
2023/09/24 05:40:05;;;;;;;4.70;3.07;;;13.00;99.90;12.70;101008;;;;572839;246;24095;-76
2023/09/24 05:42:34;;;;;;;3.60;3.30;;;13.60;99.90;12.90;101003;;;;572782;246;24120;-76
2023/09/24 05:45:03;;;;;;;5.30;3.60;;;13.80;99.90;13.20;101014;;;;572707;246;24110;-76
2023/09/24 05:47:31;;;;;;;3.50;3.20;;;13.80;99.90;13.40;101010;;;;572675;246;24081;-77
2023/09/24 05:49:59;;;;;;;3.37;3.07;;;14.10;99.90;13.60;101015;;;;572486;246;24131;-76
2023/09/24 05:52:30;;;;;;;3.37;3.07;;;14.20;99.90;13.70;101015;;;;562867;247;24143;-77
2023/09/24 05:54:54;;;;;;;3.40;3.10;;;14.40;99.90;13.90;101023;;;;570020;247;24088;-77
2023/09/24 05:57:26;;;;;;;3.23;2.97;;;14.50;99.90;14.00;101030;;;;571225;247;24104;-76
2023/09/24 05:59:51;;;;;;;3.00;2.80;;;14.70;99.90;14.10;101033;;;;571432;247;24132;-76
2023/09/24 06:02:18;;;;;;;4.60;3.10;;;14.80;99.90;14.30;101036;;;;569913;247;24078;-77
2023/09/24 06:04:46;;;;;;;5.40;2.87;;;15.00;99.90;14.80;101031;;;;581996;242;24170;-77
2023/09/24 06:07:14;;;;;;;3.40;3.10;;;15.30;99.90;15.10;101039;;;;581672;242;24166;-77
2023/09/24 06:09:43;;;;;;;3.10;2.80;;;15.90;99.90;15.30;101041;;;;571197;247;24102;-77
2023/09/24 06:12:11;;;;;;;2.70;2.50;;;15.90;99.90;15.50;101037;;;;570123;248;24154;-77
2023/09/24 06:14:42;;;;;;;3.93;3.03;;;16.10;99.90;15.90;101051;;;;582086;242;24048;-78
2023/09/24 06:17:06;;;;;;;4.67;2.70;;;16.50;99.90;16.80;101049;;;;580457;242;24058;-77
2023/09/24 06:19:34;;;;;;;2.77;2.57;;;17.20;99.90;18.00;101062;;;;570151;248;24143;-77
2023/09/24 06:22:02;;;;;;;2.93;2.70;;;18.30;99.90;19.30;101072;;;;571557;247;24109;-77
2023/09/24 06:24:30;;;;;;;2.87;2.67;;;19.50;99.90;20.40;101064;;;;570221;248;24131;-77
2023/09/24 06:26:58;;;;;;;5.93;2.20;;;20.60;99.90;21.40;101059;;;;582178;242;24043;-77
2023/09/24 06:29:26;;;;;;;3.53;2.60;;;21.70;99.90;22.50;101062;;;;582188;242;24077;-77
2023/09/24 06:31:54;;;;;;;2.50;2.30;;;22.80;99.90;23.40;101066;;;;569707;248;24143;-77
2023/09/24 06:34:22;;;;;;;5.60;2.53;;;23.70;99.90;24.60;101065;;;;570930;247;23173;-77
2023/09/24 06:36:51;;;;;;;2.07;1.90;;;26.20;99.90;26.10;101073;;;;569728;248;23122;-78
2023/09/24 06:39:18;;;;;;;2.28;2.08;;;26.10;99.90;27.50;101075;;;;582097;242;23081;-78
2023/09/24 06:41:46;;;;;;;3.90;2.60;;;27.70;99.90;28.70;101088;;;;582866;242;24058;-78
2023/09/24 06:44:14;;;;;;;2.30;2.08;;;28.80;97.30;30.00;101090;;;;572386;246;23117;-79
2023/09/24 06:46:42;;;;;;;2.40;2.17;;;30.10;92.00;31.10;101095;;;;566981;247;35237;-77
2023/09/24 06:49:10;;;;;;;2.30;2.08;;;31.20;84.80;31.80;101094;;;;570846;247;23115;-76
2023/09/24 06:51:38;;;;;;;4.40;2.00;;;32.10;80.10;32.50;101110;;;;582700;242;23066;-77
2023/09/24 06:54:06;;;;;;;2.28;2.00;;;32.80;73.80;33.10;101115;;;;582661;242;23057;-77
2023/09/24 06:56:34;;;;;;;2.80;1.95;;;33.40;70.20;33.80;101119;;;;571856;247;23146;-77
2023/09/24 06:59:08;;;;;;;3.08;1.87;;;34.00;66.90;34.20;101121;;;;570647;247;23095;-77
2023/09/24 07:01:31;;;;;;;2.58;1.95;;;34.90;62.80;34.50;101122;;;;571469;247;24216;-78
2023/09/24 07:03:58;;;;;;;2.35;1.90;;;34.90;62.70;35.20;101131;;;;570093;247;23129;-77
2023/09/24 07:06:26;;;;;;;3.92;1.80;;;35.50;61.50;35.80;101147;;;;582026;242;24186;-77
2023/09/24 07:08:54;;;;;;;1.98;1.80;;;36.10;58.50;36.20;101150;;;;582116;242;23136;-78
2023/09/24 07:11:33;;;;;;;3.12;1.90;;;36.50;57.30;36.60;101156;;;;571801;247;23094;-78
2023/09/24 07:13:59;;;;;;;1.98;1.87;;;36.90;56.00;36.80;101155;;;;580465;247;23133;-77
2023/09/24 07:16:27;;;;;;;2.08;1.55;;;37.20;54.80;36.80;101164;;;;582359;242;23062;-78
2023/09/24 07:18:56;;;;;;;1.80;1.67;;;37.40;53.70;36.90;101168;;;;582078;242;23124;-77
2023/09/24 07:21:25;;;;;;;1.67;1.58;;;37.30;53.60;37.00;101180;;;;584436;242;23075;-78
2023/09/24 07:23:55;;;;;;;2.58;2.12;;;37.40;52.60;37.00;101185;;;;570019;248;24105;-77
2023/09/24 07:26:23;;;;;;;2.12;1.98;;;37.40;52.90;37.00;101200;;;;579151;247;24143;-77
2023/09/24 07:28:54;;;;;;;2.17;2.00;;;37.30;52.40;36.80;101203;;;;580232;247;23120;-77
2023/09/24 07:31:21;;;;;;;1.70;1.60;;;37.00;52.90;37.20;101200;;;;571468;247;23105;-77
2023/09/24 07:33:47;;;;;;;1.95;1.58;;;37.30;52.30;37.30;101202;;;;571325;247;24110;-77
2023/09/24 07:36:15;;;;;;;2.25;2.05;;;37.50;51.90;36.90;101204;;;;571140;247;23118;-77
2023/09/24 07:38:43;;;;;;;1.73;1.62;;;37.10;52.10;36.80;101208;;;;581820;242;24179;-77
2023/09/24 07:41:11;;;;;;;1.90;1.80;;;37.10;52.10;36.90;101211;;;;574335;247;23211;-77
2023/09/24 07:43:39;;;;;;;5.10;2.00;;;37.20;52.90;37.10;101212;;;;580243;247;23111;-77
2023/09/24 07:46:11;;;;;;;3.12;1.70;;;37.40;51.80;37.40;101213;;;;571721;247;23145;-77
2023/09/24 07:48:35;;;;;;;2.00;1.80;;;37.70;51.50;37.20;101217;;;;571617;247;23106;-77
2023/09/24 07:51:03;;;;;;;2.85;1.30;;;37.60;51.30;37.30;101228;;;;566425;251;23117;-77
2023/09/24 07:53:31;;;;;;;2.85;1.67;;;37.70;50.80;37.70;101226;;;;574821;245;23087;-77
2023/09/24 07:56:02;;;;;;;1.83;1.60;;;38.00;50.60;38.10;101236;;;;593792;236;23171;-77
2023/09/24 07:58:27;;;;;;;2.87;1.65;;;38.40;49.90;37.90;101236;;;;562389;250;23117;-77
2023/09/24 08:00:54;;;;;;;1.83;1.73;;;38.40;49.30;37.70;101246;;;;559220;249;23091;-77
2023/09/24 08:03:23;;;;;;;3.40;2.40;;;38.40;50.10;38.00;101248;;;;572428;249;24147;-78
2023/09/24 08:05:52;;;;;;;3.15;2.22;;;38.70;49.40;38.30;101255;;;;593858;238;23065;-77
2023/09/24 08:08:21;;;;;;;1.60;1.48;;;38.90;49.10;38.50;101258;;;;594636;236;23050;-77
2023/09/24 08:10:50;;;;;;;2.90;1.87;;;38.80;48.90;38.70;101275;;;;598198;236;23039;-78
2023/09/24 08:13:17;;;;;;;4.85;1.95;;;39.10;48.70;38.10;101268;;;;559721;246;23171;-77
2023/09/24 08:15:45;;;;;;;1.05;1.05;;;38.80;48.30;37.50;101284;;;;569404;246;23115;-77
2023/09/24 08:18:17;;;;;;;3.28;1.60;;;38.40;48.60;36.30;101287;;;;592138;237;35229;-77
2023/09/24 08:20:41;;;;;;;1.55;1.42;;;37.60;49.00;35.10;101293;;;;591195;240;23065;-77
2023/09/24 08:23:09;;;;;;;1.87;1.48;;;36.30;50.60;35.30;101290;;;;586761;240;23105;-77
2023/09/24 08:25:40;;;;;;;3.30;1.42;;;36.00;51.50;35.50;101293;;;;573125;246;24189;-77
2023/09/24 08:28:06;;;;;;;3.00;1.42;;;36.30;51.50;35.70;101300;;;;574369;245;23131;-77
2023/09/24 08:30:34;;;;;;;2.47;1.85;;;36.50;51.30;36.00;101292;;;;562252;251;23174;-77
2023/09/24 08:33:04;;;;;;;3.53;1.77;;;36.50;51.20;36.30;101290;;;;562210;251;23098;-78
2023/09/24 08:35:34;;;;;;;2.08;1.70;;;36.70;51.10;36.40;101292;;;;574254;246;23103;-77
2023/09/24 08:37:58;;;;;;;2.50;1.80;;;36.90;50.80;36.50;101299;;;;560860;249;35286;-77
2023/09/24 08:40:26;;;;;;;1.75;1.25;;;37.00;50.50;35.90;101297;;;;572681;246;23152;-77
2023/09/24 08:42:54;;;;;;;2.30;1.33;;;36.60;50.50;35.80;101300;;;;567413;249;23155;-77
2023/09/24 08:45:26;;;;;;;1.77;1.10;;;36.50;50.70;35.30;101296;;;;567688;247;23173;-76
2023/09/24 08:47:50;;;;;;;3.05;1.20;;;36.10;50.90;35.00;101299;;;;572909;246;24178;-76
2023/09/24 08:50:18;;;;;;;2.08;0.98;;;35.70;50.80;34.80;101298;;;;579154;244;23117;-77
2023/09/24 08:52:48;;;;;;;4.15;1.58;;;35.40;51.50;35.10;101304;;;;566953;249;23092;-76
2023/09/24 08:55:13;;;;;;;1.27;1.12;;;35.60;51.60;35.80;101311;;;;568999;246;23115;-77
2023/09/24 08:57:41;;;;;;;1.00;0.90;;;36.30;51.00;36.20;101315;;;;581740;245;23065;-77
2023/09/24 09:00:12;;;;;;;1.60;1.02;;;36.90;50.20;36.60;101320;;;;575654;241;23075;-77
2023/09/24 09:02:40;;;;;;;1.73;1.23;;;37.30;49.80;37.20;101323;;;;579167;246;23132;-77
2023/09/24 09:05:24;;;;;;;0.95;0.93;;;37.90;49.20;37.30;101330;;;;591401;240;23111;-77
2023/09/24 09:08:01;;;;;;;1.35;1.08;;;38.20;48.50;37.20;101342;;;;592967;237;23061;-77
2023/09/24 09:10:30;;;;;;;5.22;0.90;;;38.30;48.10;37.30;101344;;;;577134;246;23118;-78
2023/09/24 09:13:12;;;;;;;1.60;1.00;;;38.30;48.40;37.30;101338;;;;566862;251;23113;-77
2023/09/24 09:15:36;;;;;;;1.55;1.12;;;38.30;47.70;37.00;101347;;;;582561;241;23064;-77
2023/09/24 09:18:04;;;;;;;1.12;0.88;;;38.00;47.60;36.30;101344;;;;591239;237;23051;-76
2023/09/24 09:20:41;;;;;;;1.45;1.00;;;36.90;49.10;35.90;101345;;;;589530;238;23110;-78
2023/09/24 09:23:13;;;;;;;1.15;0.70;;;36.90;49.10;35.20;101363;;;;586075;240;23079;-77
2023/09/24 09:25:49;;;;;;;2.65;1.00;;;36.30;49.40;33.70;101355;;;;586700;240;23064;-77
2023/09/24 09:28:20;;;;;;;1.42;1.20;;;35.20;50.30;32.30;101362;;;;581163;240;35050;-77
2023/09/24 09:31:11;;;;;;;2.37;1.15;;;33.80;52.50;31.50;101355;;;;585155;240;23101;-78
2023/09/24 09:33:45;;;;;;;1.20;1.10;;;32.90;53.90;31.50;101360;;;;572691;246;23125;-77
2023/09/24 09:36:25;;;;;;;1.02;0.80;;;32.60;54.90;31.10;101350;;;;567749;248;23244;-78
2023/09/24 09:38:53;;;;;;;4.82;1.30;;;32.10;55.50;29.90;101363;;;;562371;251;23111;-76
2023/09/24 09:41:21;;;;;;;1.12;0.80;;;31.10;56.50;28.60;101352;;;;571671;246;24116;-75
2023/09/24 09:43:49;;;;;;;1.98;0.80;;;29.90;58.10;27.70;101357;;;;572215;246;23117;-77
2023/09/24 09:46:17;;;;;;;0.68;0.68;;;28.00;62.50;27.10;101355;;;;572741;246;23097;-76
2023/09/24 09:48:58;;;;;;;3.22;1.00;;;27.30;64.00;26.60;101362;;;;572707;246;23086;-76
2023/09/24 09:51:26;;;;;;;0.60;0.60;;;27.30;64.00;26.10;101359;;;;572555;246;24142;-77
2023/09/24 09:53:54;;;;;;;1.23;0.77;;;26.70;65.70;25.90;101361;;;;574326;243;35261;-76
2023/09/24 09:56:23;;;;;;;0.87;0.60;;;26.50;66.50;25.40;101359;;;;572398;246;23125;-77
2023/09/24 09:58:53;;;;;;;0.77;0.50;;;26.00;67.30;25.70;101363;;;;572773;246;24164;-78
2023/09/24 10:01:20;;;;;;;1.80;0.83;;;26.10;68.20;26.10;101369;;;;572457;246;23102;-77
2023/09/24 10:03:45;;;;;;;1.43;0.60;;;26.50;67.80;26.10;101376;;;;568278;246;23207;-78
2023/09/24 10:06:13;;;;;;;0.50;0.50;;;26.70;66.90;25.90;101378;;;;588578;242;23069;-77
2023/09/24 10:08:41;;;;;;;2.33;0.83;;;26.50;66.80;25.80;101373;;;;571179;247;24105;-77
2023/09/24 10:11:13;;;;;;;0.97;0.60;;;26.60;67.60;26.20;101385;;;;577503;245;23177;-77
2023/09/24 10:13:50;;;;;;;1.23;0.80;;;26.60;67.60;26.10;101384;;;;568216;247;23112;-77
2023/09/24 10:16:33;;;;;;;0.87;0.60;;;26.70;66.70;25.70;101382;;;;564794;249;23220;-78
2023/09/24 10:19:01;;;;;;;1.30;0.60;;;26.30;67.10;24.90;101383;;;;564173;250;23162;-76
2023/09/24 10:21:31;;;;;;;1.00;0.90;;;25.70;68.90;24.40;101387;;;;555154;250;23176;-77
2023/09/24 10:24:13;;;;;;;0.70;0.70;;;25.10;70.90;24.00;101380;;;;570945;247;23117;-77
2023/09/24 10:27:04;;;;;;;1.17;1.07;;;24.30;73.80;23.80;101383;;;;570844;247;23097;-77
2023/09/24 10:29:49;;;;;;;0.70;0.70;;;24.30;73.80;23.40;101385;;;;570781;247;24130;-76
2023/09/24 10:32:21;;;;;;;2.73;0.87;;;24.00;74.50;23.00;101382;;;;570703;247;23086;-76
2023/09/24 10:35:12;;;;;;;1.13;0.70;;;23.60;75.50;22.70;101380;;;;567124;249;24161;-77
2023/09/24 10:37:38;;;;;;;0.83;0.83;;;23.20;77.30;22.50;101382;;;;572581;248;24122;-77
2023/09/24 10:40:05;;;;;;;2.80;1.53;;;23.00;78.80;22.50;101391;;;;567551;248;24097;-76
2023/09/24 10:42:33;;;;;;;0.40;0.40;;;23.00;80.30;22.40;101390;;;;569079;248;24259;-77
2023/09/24 10:45:07;;;;;;;0.50;0.50;;;22.80;79.70;22.20;101393;;;;565089;248;24141;-76
2023/09/24 10:47:41;;;;;;;2.50;0.83;;;22.60;79.50;22.00;101390;;;;579761;245;24107;-77
2023/09/24 10:50:12;;;;;;;1.43;0.50;;;22.50;80.00;21.80;101394;;;;571373;250;24110;-76
2023/09/24 10:53:01;;;;;;;0.87;0.47;;;22.30;80.30;21.80;101403;;;;570061;246;24195;-77
2023/09/24 10:57:56;;;;;;;0.50;0.50;;;22.20;81.90;21.80;101397;;;;584263;241;23064;-77
2023/09/24 11:00:27;;;;;;;2.13;0.60;;;22.10;82.90;21.70;101396;;;;585467;241;24074;-77
2023/09/24 11:02:56;;;;;;;1.03;0.93;;;22.10;82.90;21.70;101390;;;;585713;241;24053;-77
2023/09/24 11:05:27;;;;;;;2.07;0.80;;;22.20;83.90;21.70;101391;;;;585181;241;24059;-78
2023/09/24 11:07:51;;;;;;;1.03;0.50;;;22.20;84.00;21.60;101395;;;;561872;251;24121;-77
2023/09/24 11:10:20;;;;;;;0.60;0.60;;;21.80;83.50;21.30;101404;;;;572198;247;24128;-77
2023/09/24 11:12:48;;;;;;;0.97;0.83;;;21.60;83.80;21.10;101395;;;;562112;251;24111;-77
2023/09/24 11:15:16;;;;;;;0.63;0.63;;;21.60;83.80;20.80;101400;;;;572200;247;24095;-77
2023/09/24 11:17:51;;;;;;;1.73;0.70;;;21.40;84.90;20.50;101405;;;;561696;251;24117;-77
2023/09/24 11:20:17;;;;;;;1.53;0.90;;;21.10;86.00;20.40;101410;;;;565260;251;24119;-75